Main page
METAR-TAF:

METAR-TAF

Airports :

Suceava International Airport

Suceava, Romania

latitude: 47-39N, longitude: 026-15E, elevation: 351 m

Current weather observation

The report was made 32 minutes ago, at 23:30 UTC
Wind 12 kt from the Southeast
Temperature -1°C
Humidity 100%
Pressure 1028 hPa
Visibility: 0200 m
freezing fog

METAR: LRSV 172330Z 14012KT 0200 R34/0500N FZFG VV001 M01/M01 Q1028

Time: 02:02 (00:02 UTC)

Forecast

The report was made 1 hour and 2 minutes ago, at 23:00 UTC
Forecast valid from 18 at 00 UTC to 18 at 09 UTC
Wind 10 kt from the South/Southeast
Visibility: 0150 m
at a height of 100 ft
freezing fog
Becoming
from 18 at 05 UTC to 18 at 07 UTC
Visibility: 0600 m
Broken clouds at a height of 200 ft
Becoming
from 18 at 07 UTC to 18 at 09 UTC
Visibility: 1500 m
Broken clouds at a height of 500 ft
mist

TAF: LRSV 172300Z 1800/1809 16010KT 0150 FZFG VV001 BECMG 1805/1807 0600 BKN002 BECMG 1807/1809 1500 BR BKN005

Weather observations and forecasts of more than 4000 airports (METAR and TAF reports).

The available stations are represented by yellow and red dots on the map.

Hover mouse over dot to see the name of the station.

Then click to see weather observations and forecasts.

To change the map : click on the green buttons with a black cross to zoom in, on the green button with a dash to zoom out, or on the green arrows for adjacent maps.


METAR-TAF: